createdAt,value
2019-02-04T00:00:29.933Z,0.20
2019-02-04T00:03:01.860Z,0.20
2019-02-04T00:05:32.212Z,0.20
2019-02-04T00:08:02.610Z,0.20
2019-02-04T00:10:32.862Z,0.20
2019-02-04T00:13:03.967Z,0.10
2019-02-04T00:15:34.303Z,0.20
2019-02-04T00:18:05.411Z,0.20
2019-02-04T00:20:35.653Z,0.20
2019-02-04T00:23:06.072Z,0.20
2019-02-04T00:25:36.973Z,0.20
2019-02-04T00:28:07.304Z,0.10
2019-02-04T00:30:37.700Z,0.20
2019-02-04T00:33:08.031Z,0.20
2019-02-04T00:35:38.310Z,0.10
2019-02-04T00:38:08.716Z,0.20
2019-02-04T00:40:40.445Z,0.20
2019-02-04T00:43:10.670Z,0.20
2019-02-04T00:45:40.988Z,0.20
2019-02-04T00:48:11.248Z,0.20
2019-02-04T00:50:41.541Z,0.20
2019-02-04T00:53:11.953Z,0.10
2019-02-04T00:55:42.280Z,0.20
2019-02-04T00:58:12.597Z,0.10
2019-02-04T01:00:42.824Z,0.10
2019-02-04T01:03:13.277Z,0.10
2019-02-04T01:05:44.131Z,0.10
2019-02-04T01:08:14.436Z,0.10
2019-02-04T01:10:44.844Z,0.10
2019-02-04T01:13:15.114Z,0.10
2019-02-04T01:15:45.412Z,0.10
2019-02-04T01:18:15.710Z,0.10
2019-02-04T01:20:46.138Z,0.10
2019-02-04T01:23:16.486Z,0.10
2019-02-04T01:25:46.782Z,0.10
2019-02-04T01:28:17.060Z,0.10
2019-02-04T01:30:47.344Z,0.10
2019-02-04T01:33:17.669Z,0.10
2019-02-04T01:35:48.036Z,0.10
2019-02-04T01:38:18.352Z,0.10
2019-02-04T01:40:48.606Z,0.10
2019-02-04T01:43:18.945Z,0.10
2019-02-04T01:45:49.615Z,0.00
2019-02-04T01:48:19.872Z,0.10
2019-02-04T01:50:50.249Z,0.10
2019-02-04T01:53:20.511Z,0.10
2019-02-04T01:55:50.842Z,0.10
2019-02-04T01:58:22.699Z,0.10
2019-02-04T02:00:52.912Z,0.10
2019-02-04T02:03:23.568Z,0.10
2019-02-04T02:05:53.788Z,0.10
2019-02-04T02:08:24.163Z,0.10
2019-02-04T02:10:54.401Z,0.10
2019-02-04T02:13:24.675Z,0.10
2019-02-04T02:15:54.912Z,0.10
2019-02-04T02:18:25.251Z,0.10
2019-02-04T02:20:55.487Z,0.10
2019-02-04T02:23:27.008Z,0.10
2019-02-04T02:25:57.302Z,0.10
2019-02-04T02:28:27.983Z,0.10
2019-02-04T02:30:58.184Z,0.10
2019-02-04T02:33:28.473Z,0.10
2019-02-04T02:35:59.144Z,0.10
2019-02-04T02:38:31.288Z,0.10
2019-02-04T02:41:01.615Z,0.10
2019-02-04T02:43:32.375Z,0.10
2019-02-04T02:46:02.800Z,0.10
2019-02-04T02:48:33.307Z,0.10
2019-02-04T02:51:04.053Z,0.10
2019-02-04T02:53:34.403Z,0.10
2019-02-04T02:56:05.570Z,0.10
2019-02-04T02:58:35.906Z,0.10
2019-02-04T03:01:06.209Z,0.10
2019-02-04T03:03:36.801Z,0.10
2019-02-04T03:06:07.218Z,0.10
2019-02-04T03:08:37.545Z,0.10
2019-02-04T03:11:07.788Z,0.10
2019-02-04T03:13:38.105Z,0.10
2019-02-04T03:16:08.794Z,0.10
2019-02-04T03:18:39.337Z,0.10
2019-02-04T03:21:09.668Z,0.10
2019-02-04T03:23:40.018Z,0.10
2019-02-04T03:26:10.348Z,0.10
2019-02-04T03:28:40.722Z,0.10
2019-02-04T03:31:11.526Z,0.10
2019-02-04T03:33:41.857Z,0.10
2019-02-04T03:36:12.104Z,0.10
2019-02-04T03:38:42.421Z,0.10
2019-02-04T03:41:12.869Z,0.10
2019-02-04T03:43:43.546Z,0.10
2019-02-04T03:46:14.110Z,0.10
2019-02-04T03:48:44.360Z,0.10
2019-02-04T03:51:14.689Z,0.10
2019-02-04T03:53:45.166Z,0.10
2019-02-04T03:56:15.913Z,0.10
2019-02-04T03:58:46.571Z,0.10
2019-02-04T04:01:16.845Z,0.10
2019-02-04T04:03:47.099Z,0.10
2019-02-04T04:06:17.498Z,0.10
2019-02-04T04:08:47.945Z,0.10
2019-02-04T04:11:18.364Z,0.10
2019-02-04T04:13:48.941Z,0.10
2019-02-04T04:16:19.622Z,0.10
2019-02-04T04:18:53.429Z,0.10
2019-02-04T04:21:23.262Z,0.10
2019-02-04T04:23:53.655Z,0.10
2019-02-04T04:26:25.651Z,0.10
2019-02-04T04:28:56.027Z,0.10
2019-02-04T04:31:26.611Z,0.10
2019-02-04T04:33:56.894Z,0.10
2019-02-04T04:36:27.287Z,0.10
2019-02-04T04:38:57.720Z,0.10
2019-02-04T04:41:28.067Z,0.10
2019-02-04T04:43:58.379Z,0.10
2019-02-04T04:46:28.629Z,0.10
2019-02-04T04:48:59.182Z,0.10
2019-02-04T04:51:29.487Z,0.10
2019-02-04T04:53:59.757Z,0.10
2019-02-04T04:56:30.042Z,0.00
2019-02-04T04:59:00.332Z,0.00
2019-02-04T05:01:30.702Z,0.10
2019-02-04T05:04:01.115Z,0.10
2019-02-04T05:06:31.614Z,0.10
2019-02-04T05:09:01.974Z,0.10
2019-02-04T05:11:33.968Z,0.10
2019-02-04T05:14:04.714Z,0.10
2019-02-04T05:16:37.892Z,0.10
2019-02-04T05:19:08.368Z,0.00
2019-02-04T05:21:38.922Z,0.00
2019-02-04T05:24:09.279Z,0.10
2019-02-04T05:26:39.650Z,0.00
2019-02-04T05:29:10.000Z,0.00
2019-02-04T05:31:40.445Z,0.10
2019-02-04T05:34:11.063Z,0.10
2019-02-04T05:36:41.340Z,0.10
2019-02-04T05:39:11.945Z,0.10
2019-02-04T05:41:42.995Z,0.00
2019-02-04T05:44:13.684Z,0.00
2019-02-04T05:46:44.154Z,0.00
2019-02-04T05:49:14.511Z,0.00
2019-02-04T05:51:45.001Z,0.00
2019-02-04T05:54:15.795Z,0.00
2019-02-04T05:56:46.071Z,0.00
2019-02-04T05:59:16.455Z,0.00
2019-02-04T06:01:46.860Z,0.00
2019-02-04T06:04:17.296Z,0.00
2019-02-04T06:06:47.713Z,0.00
2019-02-04T06:09:18.385Z,0.00
2019-02-04T06:11:48.953Z,0.00
2019-02-04T06:14:19.351Z,0.00
2019-02-04T06:16:49.883Z,0.00
2019-02-04T06:19:20.392Z,0.00
2019-02-04T06:21:51.163Z,0.00
2019-02-04T06:24:21.757Z,0.00
2019-02-04T06:26:52.103Z,0.00
2019-02-04T06:29:22.829Z,0.00
2019-02-04T06:31:53.257Z,0.00
2019-02-04T06:34:23.875Z,0.00
2019-02-04T06:36:54.371Z,0.00
2019-02-04T06:39:24.671Z,0.00
2019-02-04T06:41:55.271Z,0.00
2019-02-04T06:44:25.713Z,0.00
2019-02-04T06:46:56.390Z,0.10
2019-02-04T06:49:26.691Z,0.10
2019-02-04T06:51:57.233Z,0.10
2019-02-04T06:54:27.566Z,0.10
2019-02-04T06:56:57.852Z,0.00
2019-02-04T06:59:28.304Z,0.00
2019-02-04T07:01:59.030Z,0.10
2019-02-04T07:04:29.368Z,0.10
2019-02-04T07:07:00.118Z,0.10
2019-02-04T07:09:30.591Z,0.10
2019-02-04T07:12:01.162Z,0.10
2019-02-04T07:14:32.293Z,0.10
2019-02-04T07:17:02.713Z,0.10
2019-02-04T07:19:33.161Z,0.10
2019-02-04T07:22:03.809Z,0.10
2019-02-04T07:24:42.380Z,0.10
2019-02-04T07:27:06.668Z,0.10
2019-02-04T07:29:37.143Z,0.10
2019-02-04T07:32:07.624Z,0.10
2019-02-04T07:34:38.012Z,0.10
2019-02-04T07:37:08.793Z,0.10
2019-02-04T07:39:39.050Z,0.10
2019-02-04T07:42:09.793Z,0.00
2019-02-04T07:44:42.574Z,0.00
2019-02-04T07:47:12.971Z,0.10
2019-02-04T07:49:43.266Z,0.10
2019-02-04T07:52:13.838Z,0.10
2019-02-04T07:54:44.867Z,0.10
2019-02-04T07:57:15.247Z,0.10
2019-02-04T07:59:45.557Z,0.10
2019-02-04T08:02:15.851Z,0.10
2019-02-04T08:04:46.080Z,0.10
2019-02-04T08:07:16.897Z,0.10
2019-02-04T08:09:47.343Z,0.10
2019-02-04T08:12:17.982Z,0.10
2019-02-04T08:14:48.433Z,0.10
2019-02-04T08:17:18.837Z,0.10
2019-02-04T08:19:49.970Z,0.10
2019-02-04T08:22:20.559Z,0.10
2019-02-04T08:24:51.008Z,0.10
2019-02-04T08:27:21.477Z,0.10
2019-02-04T08:29:52.085Z,0.10
2019-02-04T08:32:22.964Z,0.10
2019-02-04T08:34:53.577Z,0.10
2019-02-04T08:37:23.895Z,0.10
2019-02-04T08:39:54.368Z,0.10
2019-02-04T08:42:24.831Z,0.00
2019-02-04T08:44:55.570Z,0.00
2019-02-04T08:47:25.941Z,0.00
2019-02-04T08:49:58.564Z,0.10
2019-02-04T08:52:29.352Z,0.00
2019-02-04T08:54:59.706Z,0.00
2019-02-04T08:57:31.134Z,0.00
2019-02-04T09:00:01.860Z,0.10
2019-02-04T09:02:34.445Z,0.00
2019-02-04T09:05:04.874Z,0.00
2019-02-04T09:07:35.210Z,0.00
2019-02-04T09:10:06.445Z,0.10
2019-02-04T09:12:36.947Z,0.10
2019-02-04T09:15:09.521Z,0.00
2019-02-04T09:17:39.776Z,0.10
2019-02-04T09:20:11.708Z,0.10
2019-02-04T09:22:42.096Z,0.10
2019-02-04T09:25:13.457Z,0.10
2019-02-04T09:27:43.810Z,0.10
2019-02-04T09:30:17.042Z,0.10
2019-02-04T09:32:47.340Z,0.10
2019-02-04T09:35:18.752Z,0.10
2019-02-04T09:37:49.161Z,0.10
2019-02-04T09:40:22.914Z,0.20
2019-02-04T09:42:53.396Z,0.20
2019-02-04T09:45:27.444Z,0.10
2019-02-04T09:47:56.112Z,0.20
2019-02-04T09:50:27.198Z,0.20
2019-02-04T09:52:57.701Z,0.10
2019-02-04T09:55:31.120Z,0.00
2019-02-04T09:58:01.767Z,0.10
2019-02-04T10:00:33.253Z,0.00
2019-02-04T10:03:03.843Z,0.00
2019-02-04T10:05:35.530Z,0.10
2019-02-04T10:08:06.525Z,0.10
2019-02-04T10:10:36.951Z,0.00
2019-02-04T10:13:08.434Z,0.00
2019-02-04T10:15:40.231Z,0.10
2019-02-04T10:18:12.349Z,0.10
2019-02-04T10:20:43.097Z,0.10
2019-02-04T10:23:13.511Z,0.10
2019-02-04T10:25:44.214Z,0.10
2019-02-04T10:28:15.292Z,0.10
2019-02-04T10:30:45.935Z,0.10
2019-02-04T10:33:16.681Z,0.10
2019-02-04T10:35:47.619Z,0.20
2019-02-04T10:38:18.592Z,0.10
2019-02-04T10:40:49.084Z,0.10
2019-02-04T10:43:19.474Z,0.10
2019-02-04T10:45:50.523Z,0.10
2019-02-04T10:48:21.252Z,0.20
2019-02-04T10:50:52.175Z,0.10
2019-02-04T10:53:22.937Z,0.20
2019-02-04T10:55:53.834Z,0.10
2019-02-04T10:58:24.288Z,0.20
2019-02-04T11:00:54.848Z,0.20
2019-02-04T11:03:25.213Z,0.20
2019-02-04T11:05:55.614Z,0.20
2019-02-04T11:08:25.963Z,0.20
2019-02-04T11:10:56.323Z,0.20
2019-02-04T11:13:27.076Z,0.20
2019-02-04T11:15:57.358Z,0.30
2019-02-04T11:18:27.699Z,0.20
2019-02-04T11:20:58.536Z,0.20
2019-02-04T11:23:29.299Z,0.20
2019-02-04T11:26:00.163Z,0.30
2019-02-04T11:28:30.539Z,0.30
2019-02-04T11:31:02.995Z,0.30
2019-02-04T11:33:33.607Z,0.40
2019-02-04T11:36:04.020Z,0.40
2019-02-04T11:38:34.335Z,0.40
2019-02-04T11:41:04.598Z,0.40
2019-02-04T11:43:34.966Z,0.40
2019-02-04T11:46:05.242Z,0.40
2019-02-04T11:48:35.597Z,0.40
2019-02-04T11:51:09.843Z,0.50
2019-02-04T11:53:38.021Z,0.40
2019-02-04T11:56:08.600Z,0.50
2019-02-04T11:58:39.004Z,0.50
2019-02-04T12:01:09.326Z,0.50
2019-02-04T12:03:39.934Z,0.40
2019-02-04T12:06:12.110Z,0.30
2019-02-04T12:08:42.576Z,0.30
2019-02-04T12:11:21.072Z,0.40
2019-02-04T12:13:51.496Z,0.40
2019-02-04T12:16:21.798Z,0.30
2019-02-04T12:18:52.149Z,0.30
2019-02-04T12:21:22.547Z,0.40
2019-02-04T12:23:52.897Z,0.30
2019-02-04T12:26:23.364Z,0.30
2019-02-04T12:28:54.208Z,0.40
2019-02-04T12:31:24.772Z,0.30
2019-02-04T12:33:55.196Z,0.30
2019-02-04T12:36:25.687Z,0.40
2019-02-04T12:38:56.102Z,0.40
2019-02-04T12:41:26.486Z,0.40
2019-02-04T12:43:56.885Z,0.40
2019-02-04T12:46:27.140Z,0.40
2019-02-04T12:48:57.564Z,0.40
2019-02-04T12:51:33.848Z,0.50
2019-02-04T12:54:00.050Z,0.50
2019-02-04T12:56:30.436Z,0.60
2019-02-04T12:59:00.735Z,0.60
2019-02-04T13:01:31.058Z,0.60
2019-02-04T13:04:01.553Z,0.60
2019-02-04T13:06:31.962Z,0.50
2019-02-04T13:09:02.502Z,0.50
2019-02-04T13:11:34.364Z,0.60
2019-02-04T13:14:05.833Z,0.50
2019-02-04T13:16:36.141Z,0.50
2019-02-04T13:19:06.543Z,0.40
2019-02-04T13:21:45.140Z,0.50
2019-02-04T13:24:09.087Z,0.40
2019-02-04T13:26:39.308Z,0.40
2019-02-04T13:29:10.261Z,0.50
2019-02-04T13:31:40.806Z,0.50
2019-02-04T13:34:11.132Z,0.60
2019-02-04T13:36:41.575Z,0.60
2019-02-04T13:39:12.051Z,0.60
2019-02-04T13:41:42.599Z,0.60
2019-02-04T13:44:12.967Z,0.50
2019-02-04T13:46:43.296Z,0.50
2019-02-04T13:49:13.725Z,0.50
2019-02-04T13:51:56.862Z,0.50
2019-02-04T13:54:17.722Z,0.50
2019-02-04T13:56:48.098Z,0.50
2019-02-04T13:59:19.683Z,0.40
2019-02-04T14:01:50.797Z,0.40
2019-02-04T14:04:22.178Z,0.40
2019-02-04T14:06:52.630Z,0.40
2019-02-04T14:09:23.075Z,0.40
2019-02-04T14:11:53.384Z,0.40
2019-02-04T14:14:24.336Z,0.50
2019-02-04T14:16:54.745Z,0.50
2019-02-04T14:19:25.220Z,0.50
2019-02-04T14:21:56.166Z,0.40
2019-02-04T14:24:26.587Z,0.40
2019-02-04T14:26:57.007Z,0.30
2019-02-04T14:29:28.773Z,0.30
2019-02-04T14:31:59.194Z,0.40
2019-02-04T14:34:29.624Z,0.40
2019-02-04T14:37:00.077Z,0.40
2019-02-04T14:39:30.479Z,0.30
2019-02-04T14:42:01.413Z,0.40
2019-02-04T14:45:13.070Z,0.30
2019-02-04T14:48:05.926Z,0.30
2019-02-04T14:51:35.973Z,0.30
2019-02-04T14:55:13.153Z,0.30
2019-02-04T14:58:12.823Z,0.30
2019-02-04T15:01:22.299Z,0.40
2019-02-04T15:04:39.696Z,0.40
2019-02-04T15:08:16.643Z,0.40
2019-02-04T15:11:14.727Z,0.30
2019-02-04T15:14:23.230Z,0.30
2019-02-04T15:17:11.002Z,0.30
2019-02-04T15:20:06.960Z,0.30
2019-02-04T15:23:08.529Z,0.20
2019-02-04T15:26:34.408Z,0.20
2019-02-04T15:29:46.292Z,0.20
2019-02-04T15:32:21.227Z,0.20
2019-02-04T15:35:28.792Z,0.20
2019-02-04T15:38:28.614Z,0.20
2019-02-04T15:41:39.305Z,0.20
2019-02-04T15:44:40.513Z,0.20
2019-02-04T15:47:53.395Z,0.10
2019-02-04T15:50:37.114Z,0.10
2019-02-04T15:53:07.761Z,0.10
2019-02-04T15:55:40.152Z,0.10
2019-02-04T15:58:12.888Z,0.10
2019-02-04T16:00:43.312Z,0.00
2019-02-04T16:03:13.692Z,0.00
2019-02-04T16:05:44.212Z,0.00
2019-02-04T16:08:14.556Z,0.00
2019-02-04T16:10:44.894Z,0.00
2019-02-04T16:13:15.355Z,0.00
2019-02-04T16:15:46.151Z,0.00
2019-02-04T16:18:17.326Z,0.00
2019-02-04T16:20:47.682Z,0.00
2019-02-04T16:23:18.062Z,-0.10
2019-02-04T16:25:48.495Z,0.00
2019-02-04T16:28:19.377Z,0.00
2019-02-04T16:30:50.012Z,0.00
2019-02-04T16:33:20.870Z,0.00
2019-02-04T16:35:52.661Z,0.00
2019-02-04T16:38:23.228Z,0.00
2019-02-04T16:40:54.416Z,0.00
2019-02-04T16:43:24.760Z,0.00
2019-02-04T16:45:55.465Z,0.00
2019-02-04T16:48:25.939Z,-0.10
2019-02-04T16:51:10.554Z,0.00
2019-02-04T16:53:29.407Z,0.00
2019-02-04T16:56:00.152Z,0.00
2019-02-04T16:58:30.529Z,0.10
2019-02-04T17:01:01.002Z,0.00
2019-02-04T17:03:32.711Z,0.10
2019-02-04T17:06:03.071Z,0.20
2019-02-04T17:08:34.379Z,0.10
2019-02-04T17:11:04.640Z,0.10
2019-02-04T17:13:35.278Z,0.10
2019-02-04T17:16:05.930Z,0.10
2019-02-04T17:18:36.562Z,0.10
2019-02-04T17:21:09.630Z,0.10
2019-02-04T17:23:40.095Z,0.10
2019-02-04T17:26:10.717Z,0.10
2019-02-04T17:28:41.368Z,0.10
2019-02-04T17:31:12.058Z,0.10
2019-02-04T17:33:42.836Z,0.10
2019-02-04T17:36:14.600Z,0.10
2019-02-04T17:38:45.069Z,0.10
2019-02-04T17:41:15.541Z,0.10
2019-02-04T17:43:46.096Z,0.10
2019-02-04T17:46:16.635Z,0.10
2019-02-04T17:48:47.397Z,0.10
2019-02-04T17:51:18.065Z,0.10
2019-02-04T17:53:49.968Z,0.10
2019-02-04T17:56:21.362Z,0.10
2019-02-04T17:58:51.666Z,0.10
2019-02-04T18:01:22.441Z,0.10
2019-02-04T18:03:52.853Z,0.10
2019-02-04T18:06:23.339Z,0.10
2019-02-04T18:08:54.364Z,0.10
2019-02-04T18:11:24.691Z,0.10
2019-02-04T18:13:55.066Z,0.10
2019-02-04T18:16:26.523Z,0.00
2019-02-04T18:18:57.057Z,0.10
2019-02-04T18:21:27.713Z,0.10
2019-02-04T18:23:58.115Z,0.10
2019-02-04T18:26:28.712Z,0.00
2019-02-04T18:28:59.664Z,0.00
2019-02-04T18:31:30.273Z,0.00
2019-02-04T18:34:01.257Z,0.00
2019-02-04T18:36:32.076Z,0.00
2019-02-04T18:39:02.967Z,0.00
2019-02-04T18:41:35.304Z,0.00
2019-02-04T18:44:06.112Z,0.00
2019-02-04T18:46:37.021Z,0.00
2019-02-04T18:49:07.874Z,0.00
2019-02-04T18:51:38.529Z,0.00
2019-02-04T18:54:09.127Z,0.00
2019-02-04T18:56:39.581Z,-0.10
2019-02-04T18:59:10.071Z,-0.10
2019-02-04T19:01:41.001Z,-0.10
2019-02-04T19:04:15.633Z,-0.10
2019-02-04T19:06:47.812Z,-0.10
2019-02-04T19:09:17.231Z,-0.10
2019-02-04T19:11:47.912Z,-0.10
2019-02-04T19:14:18.797Z,-0.10
2019-02-04T19:16:52.133Z,-0.10
2019-02-04T19:19:22.844Z,-0.10
2019-02-04T19:21:53.839Z,-0.10
2019-02-04T19:24:24.747Z,-0.10
2019-02-04T19:26:55.328Z,-0.20
2019-02-04T19:29:26.213Z,-0.20
2019-02-04T19:31:58.904Z,-0.20
2019-02-04T19:34:29.832Z,-0.20
2019-02-04T19:37:01.376Z,-0.20
2019-02-04T19:39:32.275Z,-0.20
2019-02-04T19:42:03.235Z,-0.20
2019-02-04T19:44:34.203Z,-0.20
2019-02-04T19:47:05.309Z,-0.20
2019-02-04T19:49:35.830Z,-0.10
2019-02-04T19:52:06.352Z,-0.10
2019-02-04T19:54:37.936Z,-0.10
2019-02-04T19:57:08.608Z,-0.10
2019-02-04T19:59:39.781Z,-0.10
2019-02-04T20:02:10.459Z,-0.10
2019-02-04T20:04:40.883Z,-0.10
2019-02-04T20:07:11.773Z,-0.10
2019-02-04T20:09:42.975Z,-0.10
2019-02-04T20:12:13.818Z,-0.10
2019-02-04T20:14:44.691Z,-0.10
2019-02-04T20:17:15.274Z,-0.10
2019-02-04T20:19:45.601Z,-0.10
2019-02-04T20:22:16.600Z,-0.10
2019-02-04T20:24:47.713Z,-0.10
2019-02-04T20:27:20.079Z,-0.20
2019-02-04T20:29:50.703Z,-0.20
2019-02-04T20:32:21.025Z,-0.20
2019-02-04T20:34:51.517Z,-0.20
2019-02-04T20:37:22.215Z,-0.10
2019-02-04T20:39:52.777Z,-0.20
2019-02-04T20:42:23.461Z,-0.20
2019-02-04T20:44:54.147Z,-0.30
2019-02-04T20:47:24.733Z,-0.30
2019-02-04T20:49:55.182Z,-0.30
2019-02-04T20:52:25.743Z,-0.30
2019-02-04T20:54:56.848Z,-0.30
2019-02-04T20:57:27.237Z,-0.40
2019-02-04T20:59:57.662Z,-0.30
2019-02-04T21:02:28.657Z,-0.40
2019-02-04T21:04:59.059Z,-0.40
2019-02-04T21:07:31.025Z,-0.40
2019-02-04T21:10:03.461Z,-0.50
2019-02-04T21:12:34.627Z,-0.40
2019-02-04T21:15:08.038Z,-0.40
2019-02-04T21:17:38.595Z,-0.50
2019-02-04T21:20:12.451Z,-0.50
2019-02-04T21:22:42.979Z,-0.50
2019-02-04T21:25:14.225Z,-0.60
2019-02-04T21:27:45.028Z,-0.60
2019-02-04T21:30:27.019Z,-0.60
2019-02-04T21:32:57.590Z,-0.60
2019-02-04T21:35:28.414Z,-0.60
2019-02-04T21:37:59.134Z,-0.60
2019-02-04T21:40:29.815Z,-0.70
2019-02-04T21:43:00.258Z,-0.70
2019-02-04T21:45:32.667Z,-0.70
2019-02-04T21:48:03.007Z,-0.70
2019-02-04T21:50:33.600Z,-0.80
2019-02-04T21:53:04.023Z,-0.80
2019-02-04T21:55:34.643Z,-0.80
2019-02-04T21:58:05.090Z,-0.80
2019-02-04T22:00:37.689Z,-0.90
2019-02-04T22:03:09.182Z,-1.00
2019-02-04T22:05:39.974Z,-1.00
2019-02-04T22:08:11.519Z,-1.00
2019-02-04T22:10:42.203Z,-1.20
2019-02-04T22:13:13.137Z,-1.20
2019-02-04T22:15:44.053Z,-1.20
2019-02-04T22:18:15.506Z,-1.30
2019-02-04T22:20:47.209Z,-1.30
2019-02-04T22:23:18.100Z,-1.30
2019-02-04T22:25:48.932Z,-1.30
2019-02-04T22:28:19.210Z,-1.30
2019-02-04T22:30:50.791Z,-1.40
2019-02-04T22:33:24.150Z,-1.40
2019-02-04T22:35:55.388Z,-1.50
2019-02-04T22:38:26.308Z,-1.50
2019-02-04T22:40:57.214Z,-1.50
2019-02-04T22:43:27.949Z,-1.60
2019-02-04T22:45:58.682Z,-1.70
2019-02-04T22:48:29.627Z,-1.80
2019-02-04T22:51:00.663Z,-1.90
2019-02-04T22:53:31.550Z,-1.90
2019-02-04T22:56:02.256Z,-2.00
2019-02-04T22:58:33.134Z,-2.10
2019-02-04T23:01:42.360Z,-2.10
2019-02-04T23:04:13.428Z,-2.20
2019-02-04T23:06:44.458Z,-2.20
2019-02-04T23:09:15.717Z,-2.30
2019-02-04T23:11:46.563Z,-2.30
2019-02-04T23:14:17.072Z,-2.40
2019-02-04T23:16:47.683Z,-2.40
2019-02-04T23:19:19.547Z,-2.40
2019-02-04T23:21:50.170Z,-2.40
2019-02-04T23:24:21.021Z,-2.50
2019-02-04T23:26:51.416Z,-2.50
2019-02-04T23:29:22.283Z,-2.50
2019-02-04T23:31:53.126Z,-2.50
2019-02-04T23:34:25.680Z,-2.50
2019-02-04T23:36:56.432Z,-2.50
2019-02-04T23:39:26.793Z,-2.60
2019-02-04T23:41:58.356Z,-2.60
2019-02-04T23:44:29.002Z,-2.60
2019-02-04T23:47:02.673Z,-2.60
2019-02-04T23:49:33.515Z,-2.60
2019-02-04T23:52:04.227Z,-2.60
2019-02-04T23:54:36.334Z,-2.70
2019-02-04T23:57:06.748Z,-2.70
2019-02-04T23:59:37.096Z,-2.70
